Time;durP1;ratioP1;P1;durP2;ratioP2;P2;SDS_P1;SDS_P2;PMS_P1;PMS_P2;Temp;Humidity;BMP_temperature;BMP_pressure;BME280_temperature;BME280_humidity;BME280_pressure;Samples;Min_cycle;Max_cycle;Signal;HPM_P1;HPM_P2
2023/09/02 00:01:28;;;;;;;13.80;8.35;;;14.20;99.90;;;;;;5013944;28;20046;-70
2023/09/02 00:03:54;;;;;;;15.40;9.60;;;14.10;99.90;;;;;;4964133;28;20043;-70
2023/09/02 00:06:20;;;;;;;14.48;8.68;;;14.10;99.90;;;;;;5011320;28;20407;-70
2023/09/02 00:08:47;;;;;;;13.50;9.60;;;14.10;99.90;;;;;;4976296;28;20050;-69
2023/09/02 00:11:13;;;;;;;13.45;9.27;;;14.00;99.90;;;;;;4981791;28;20530;-71
2023/09/02 00:13:39;;;;;;;14.80;8.63;;;13.90;99.90;;;;;;5003848;28;20077;-72
2023/09/02 00:16:05;;;;;;;14.60;8.50;;;13.90;99.90;;;;;;4959134;28;20129;-70
2023/09/02 00:18:31;;;;;;;15.98;9.48;;;13.90;99.90;;;;;;5000403;28;20061;-71
2023/09/02 00:20:57;;;;;;;13.40;8.68;;;13.80;99.90;;;;;;4975285;28;20041;-70
2023/09/02 00:23:23;;;;;;;12.60;8.68;;;13.80;99.90;;;;;;4999099;28;20483;-71
2023/09/02 00:25:49;;;;;;;14.98;9.13;;;13.80;99.90;;;;;;4958668;28;20053;-71
2023/09/02 00:28:16;;;;;;;13.80;8.55;;;13.80;99.90;;;;;;5000766;28;20053;-71
2023/09/02 00:30:42;;;;;;;15.50;9.27;;;13.80;99.90;;;;;;4957383;28;20050;-70
2023/09/02 00:33:08;;;;;;;13.98;8.35;;;13.70;99.90;;;;;;4982245;28;20054;-71
2023/09/02 00:35:34;;;;;;;15.05;9.30;;;13.70;99.90;;;;;;4942692;28;20507;-71
2023/09/02 00:38:00;;;;;;;14.27;8.25;;;13.70;99.90;;;;;;4983922;28;20050;-70
2023/09/02 00:40:28;;;;;;;13.32;8.10;;;13.70;99.90;;;;;;4942383;28;20046;-70
2023/09/02 00:42:55;;;;;;;13.77;8.73;;;13.70;99.90;;;;;;4983638;28;20058;-71
2023/09/02 00:45:22;;;;;;;12.88;8.18;;;13.70;99.90;;;;;;4959030;28;20042;-71
2023/09/02 00:47:53;;;;;;;14.57;8.50;;;13.70;99.90;;;;;;4988009;28;20526;-71
2023/09/02 00:50:20;;;;;;;;;;;13.70;99.90;;;;;;4955524;28;20061;-71
2023/09/02 00:52:47;;;;;;;16.33;8.88;;;13.70;99.90;;;;;;4984368;28;19917;-71
2023/09/02 00:55:14;;;;;;;12.45;7.88;;;13.70;99.90;;;;;;4951239;28;89720;-70
2023/09/02 00:57:41;;;;;;;14.02;8.40;;;13.70;99.90;;;;;;4980304;28;20058;-71
2023/09/02 01:00:08;;;;;;;16.08;8.57;;;13.70;99.90;;;;;;4931965;28;20045;-71
2023/09/02 01:02:37;;;;;;;15.90;8.38;;;13.70;99.90;;;;;;4976765;28;20511;-71
2023/09/02 01:05:04;;;;;;;17.75;9.02;;;13.70;99.90;;;;;;4959183;28;20065;-70
2023/09/02 01:07:31;;;;;;;16.23;8.05;;;13.70;99.90;;;;;;4987064;28;20055;-71
2023/09/02 01:09:57;;;;;;;13.32;8.45;;;13.60;99.90;;;;;;4941399;28;20550;-70
2023/09/02 01:12:23;;;;;;;13.73;7.78;;;13.60;99.90;;;;;;4982237;28;20058;-71
2023/09/02 01:14:50;;;;;;;13.10;8.35;;;13.60;99.90;;;;;;4954448;28;20104;-71
2023/09/02 01:17:16;;;;;;;15.60;8.43;;;13.60;99.90;;;;;;4999729;28;20495;-70
2023/09/02 01:19:43;;;;;;;14.23;8.15;;;13.60;99.90;;;;;;4962257;28;20054;-71
2023/09/02 01:22:37;;;;;;;15.52;8.23;;;13.60;99.90;;;;;;4971130;28;20491;-70
2023/09/02 01:25:24;;;;;;;13.35;8.48;;;13.50;99.90;;;;;;4965731;28;20523;-71
2023/09/02 01:27:55;;;;;;;12.13;7.47;;;13.50;99.90;;;;;;5000356;28;20057;-70
2023/09/02 01:30:31;;;;;;;14.65;8.10;;;13.50;99.90;;;;;;4963215;28;20056;-70
2023/09/02 01:32:59;;;;;;;15.30;8.07;;;13.40;99.90;;;;;;5002124;28;20701;-70
2023/09/02 01:35:32;;;;;;;14.95;7.60;;;13.40;99.90;;;;;;4930404;28;20102;-71
2023/09/02 01:37:59;;;;;;;11.95;6.72;;;13.40;99.90;;;;;;4997723;28;20061;-70
2023/09/02 01:40:27;;;;;;;12.13;6.72;;;13.40;99.90;;;;;;4931416;28;20058;-70
2023/09/02 01:42:59;;;;;;;10.73;6.22;;;13.40;99.90;;;;;;4997984;28;21911;-71
2023/09/02 01:45:29;;;;;;;12.85;7.15;;;13.40;99.90;;;;;;4970234;28;20771;-72
2023/09/02 01:47:56;;;;;;;11.55;7.03;;;13.30;99.90;;;;;;5003793;28;20050;-71
2023/09/02 01:50:29;;;;;;;12.63;7.68;;;13.30;99.90;;;;;;4976577;28;20049;-71
2023/09/02 01:52:56;;;;;;;13.63;6.95;;;13.30;99.90;;;;;;5004745;28;20411;-70
2023/09/02 01:55:23;;;;;;;15.77;8.30;;;13.20;99.90;;;;;;4963697;28;104767;-71
2023/09/02 01:57:50;;;;;;;16.08;8.10;;;13.20;99.90;;;;;;5005057;28;20050;-70
2023/09/02 02:00:16;;;;;;;13.00;7.78;;;13.20;99.90;;;;;;4953243;28;20568;-71
2023/09/02 02:02:42;;;;;;;15.60;8.85;;;13.20;99.90;;;;;;4981945;28;20069;-70
2023/09/02 02:05:13;;;;;;;14.88;8.30;;;13.20;99.90;;;;;;4957621;28;20068;-70
2023/09/02 02:07:44;;;;;;;13.85;8.00;;;13.20;99.90;;;;;;5001458;28;20426;-71
2023/09/02 02:10:16;;;;;;;12.95;7.60;;;13.20;99.90;;;;;;4976536;28;22138;-71
2023/09/02 02:12:43;;;;;;;13.65;8.25;;;13.10;99.90;;;;;;5004813;28;21994;-71
2023/09/02 02:15:11;;;;;;;13.65;8.60;;;13.10;99.90;;;;;;4972058;28;20042;-71
2023/09/02 02:17:41;;;;;;;13.85;7.22;;;13.10;99.90;;;;;;5007744;28;20057;-71
2023/09/02 02:20:11;;;;;;;13.38;7.60;;;13.00;99.90;;;;;;4970849;28;20045;-70
2023/09/02 02:22:37;;;;;;;16.17;8.80;;;13.00;99.90;;;;;;5005477;28;20041;-70
2023/09/02 02:25:04;;;;;;;13.38;8.10;;;13.00;99.90;;;;;;4961899;28;20331;-70
2023/09/02 02:27:30;;;;;;;14.95;8.60;;;12.90;99.90;;;;;;4980585;28;20127;-70
2023/09/02 02:29:57;;;;;;;14.73;8.98;;;12.90;99.90;;;;;;4931386;28;20054;-70
2023/09/02 02:32:24;;;;;;;16.98;9.57;;;12.90;99.90;;;;;;4971803;28;20076;-71
2023/09/02 02:34:50;;;;;;;15.93;9.15;;;12.90;99.90;;;;;;4951245;28;20051;-71
2023/09/02 02:37:16;;;;;;;15.10;9.15;;;12.90;99.90;;;;;;4979405;28;20503;-71
2023/09/02 02:39:42;;;;;;;13.88;8.93;;;12.80;99.90;;;;;;4943248;28;20049;-71
2023/09/02 02:42:08;;;;;;;15.65;8.75;;;12.90;99.90;;;;;;4981610;28;20070;-70
2023/09/02 02:44:35;;;;;;;14.45;8.38;;;12.80;99.90;;;;;;4939097;28;20061;-72
2023/09/02 02:47:01;;;;;;;14.55;9.25;;;12.80;99.90;;;;;;4977821;28;20038;-72
2023/09/02 02:49:27;;;;;;;18.48;10.68;;;12.80;99.90;;;;;;4940819;28;20045;-71
2023/09/02 02:51:56;;;;;;;13.43;8.90;;;12.80;99.90;;;;;;4992789;28;20047;-70
2023/09/02 02:54:22;;;;;;;12.82;8.10;;;12.80;99.90;;;;;;4936714;28;198648;-70
2023/09/02 02:56:48;;;;;;;15.68;7.88;;;12.80;99.90;;;;;;5007957;28;20041;-70
2023/09/02 02:59:14;;;;;;;14.23;7.38;;;12.80;99.90;;;;;;4965102;28;20396;-70
2023/09/02 03:01:40;;;;;;;11.75;7.10;;;12.70;99.90;;;;;;4989762;28;20054;-71
2023/09/02 03:04:08;;;;;;;15.20;8.30;;;12.70;99.90;;;;;;4963410;28;20050;-70
2023/09/02 03:06:34;;;;;;;13.57;7.93;;;12.80;99.90;;;;;;4995509;28;20038;-70
2023/09/02 03:09:00;;;;;;;13.00;7.75;;;12.70;99.90;;;;;;4945086;28;20600;-70
2023/09/02 03:11:26;;;;;;;14.77;9.57;;;12.70;99.90;;;;;;4976844;28;20500;-70
2023/09/02 03:13:52;;;;;;;11.88;7.65;;;12.80;99.90;;;;;;4940218;28;20046;-71
2023/09/02 03:16:18;;;;;;;16.73;9.80;;;12.80;99.90;;;;;;4975826;28;20049;-72
2023/09/02 03:18:44;;;;;;;13.00;8.23;;;12.80;99.90;;;;;;4962933;28;20054;-72
2023/09/02 03:21:10;;;;;;;15.02;9.90;;;12.80;99.90;;;;;;4979048;28;69071;-70
2023/09/02 03:23:36;;;;;;;13.77;9.15;;;12.80;99.90;;;;;;4981452;28;20046;-71
2023/09/02 03:26:10;;;;;;;16.48;9.60;;;12.80;99.90;;;;;;4944745;28;20046;-70
2023/09/02 03:28:36;;;;;;;20.23;11.55;;;12.80;99.90;;;;;;5001150;28;20057;-70
2023/09/02 03:31:10;;;;;;;19.38;10.80;;;12.80;99.90;;;;;;4950640;28;20065;-70
2023/09/02 03:33:36;;;;;;;20.13;11.27;;;12.80;99.90;;;;;;5001945;28;20061;-72
2023/09/02 03:36:03;;;;;;;20.15;11.10;;;12.90;99.90;;;;;;4942566;28;20046;-71
2023/09/02 03:38:30;;;;;;;15.57;10.07;;;12.90;99.90;;;;;;5002430;28;20053;-70
2023/09/02 03:40:56;;;;;;;14.52;9.05;;;12.80;99.90;;;;;;4961431;28;20049;-70
2023/09/02 03:43:22;;;;;;;15.48;9.10;;;12.90;99.90;;;;;;5002201;28;20060;-71
2023/09/02 03:45:48;;;;;;;14.10;9.40;;;12.80;99.90;;;;;;4977648;28;20090;-70
2023/09/02 03:48:19;;;;;;;19.95;11.15;;;12.80;99.90;;;;;;4996903;28;20065;-71
2023/09/02 03:51:11;;;;;;;14.13;9.13;;;12.80;99.90;;;;;;4956406;28;20999;-70
2023/09/02 03:53:38;;;;;;;15.90;10.32;;;12.90;99.90;;;;;;5008386;28;20046;-71
2023/09/02 03:56:05;;;;;;;15.80;9.80;;;12.80;99.90;;;;;;4935220;28;220218;-70
2023/09/02 03:58:31;;;;;;;17.70;10.02;;;12.90;99.90;;;;;;4998275;28;20050;-70
2023/09/02 04:00:57;;;;;;;16.08;10.07;;;12.90;99.90;;;;;;4937737;28;20065;-70
2023/09/02 04:03:24;;;;;;;20.15;11.77;;;12.90;99.90;;;;;;4981219;28;20050;-71
2023/09/02 04:05:50;;;;;;;16.58;10.88;;;12.90;99.90;;;;;;4977100;28;20054;-70
2023/09/02 04:08:19;;;;;;;17.05;10.98;;;13.00;99.90;;;;;;5002424;28;20108;-70
2023/09/02 04:10:51;;;;;;;17.90;10.68;;;13.00;99.90;;;;;;4963784;28;20058;-71
2023/09/02 04:13:26;;;;;;;18.00;11.40;;;13.00;99.90;;;;;;5006087;28;20415;-70
2023/09/02 04:15:54;;;;;;;18.33;9.85;;;13.00;99.90;;;;;;4976601;28;20049;-70
2023/09/02 04:18:20;;;;;;;18.23;11.10;;;13.00;99.90;;;;;;5006433;28;20060;-71
2023/09/02 04:20:46;;;;;;;16.73;10.50;;;13.00;99.90;;;;;;4962552;28;20065;-71
2023/09/02 04:23:12;;;;;;;17.33;11.13;;;13.00;99.90;;;;;;4998956;28;20570;-70
2023/09/02 04:25:46;;;;;;;16.80;9.90;;;13.10;99.90;;;;;;4976834;28;20041;-70
2023/09/02 04:28:13;;;;;;;13.77;9.43;;;13.00;99.90;;;;;;5004581;28;20058;-71
2023/09/02 04:30:40;;;;;;;14.85;9.82;;;13.10;99.90;;;;;;4962416;28;20418;-71
2023/09/02 04:33:06;;;;;;;19.02;11.73;;;13.10;99.90;;;;;;5003755;28;20058;-70
2023/09/02 04:35:38;;;;;;;20.50;12.50;;;13.10;99.90;;;;;;4960689;28;21296;-71
2023/09/02 04:38:05;;;;;;;16.98;11.32;;;13.10;99.90;;;;;;4984200;28;20054;-71
2023/09/02 04:40:38;;;;;;;16.70;12.27;;;13.10;99.90;;;;;;4928780;28;20381;-70
2023/09/02 04:43:05;;;;;;;22.88;12.68;;;13.10;99.90;;;;;;4983510;28;20423;-71
2023/09/02 04:45:33;;;;;;;18.75;12.13;;;13.20;99.90;;;;;;4926945;28;20050;-71
2023/09/02 04:48:00;;;;;;;17.33;12.65;;;13.10;99.90;;;;;;4987184;28;20066;-70
2023/09/02 04:50:26;;;;;;;18.58;12.18;;;13.20;99.90;;;;;;4972124;28;20425;-70
2023/09/02 04:52:53;;;;;;;18.17;11.00;;;13.20;99.90;;;;;;4987702;28;20069;-70
2023/09/02 04:55:21;;;;;;;19.55;12.25;;;13.20;99.90;;;;;;4941349;28;57661;-70
2023/09/02 04:57:47;;;;;;;18.15;11.25;;;13.20;99.90;;;;;;4993630;28;20077;-71
2023/09/02 05:00:14;;;;;;;16.02;11.30;;;13.20;99.90;;;;;;4938306;28;20085;-72
2023/09/02 05:02:43;;;;;;;18.13;12.18;;;13.20;99.90;;;;;;4980656;28;20073;-70
2023/09/02 05:05:10;;;;;;;18.23;11.98;;;13.20;99.90;;;;;;4938450;28;20049;-71
2023/09/02 05:07:39;;;;;;;18.88;12.45;;;13.20;99.90;;;;;;4981252;28;20050;-70
2023/09/02 05:10:06;;;;;;;17.95;12.35;;;13.20;99.90;;;;;;4957819;28;20450;-71
2023/09/02 05:12:33;;;;;;;19.38;11.52;;;13.20;99.90;;;;;;5005777;28;20052;-71
2023/09/02 05:15:03;;;;;;;16.52;9.95;;;13.20;99.90;;;;;;4961559;28;20053;-70
2023/09/02 05:17:32;;;;;;;16.60;10.60;;;13.20;99.90;;;;;;5006391;28;20053;-70
2023/09/02 05:20:00;;;;;;;15.38;10.18;;;13.30;99.90;;;;;;4957440;28;20054;-71
2023/09/02 05:22:26;;;;;;;19.20;11.00;;;13.30;99.90;;;;;;4985334;28;20065;-71
2023/09/02 05:24:52;;;;;;;18.63;12.15;;;13.30;99.90;;;;;;4947106;28;20442;-71
2023/09/02 05:27:22;;;;;;;19.05;12.20;;;13.30;99.90;;;;;;4980058;28;20054;-71
2023/09/02 05:29:48;;;;;;;19.33;12.68;;;13.40;99.90;;;;;;4952978;28;20653;-71
2023/09/02 05:32:16;;;;;;;17.15;10.63;;;13.30;99.90;;;;;;4986737;28;20046;-71
2023/09/02 05:34:42;;;;;;;21.65;12.30;;;13.30;99.90;;;;;;4945926;28;20057;-70
2023/09/02 05:37:08;;;;;;;18.67;11.77;;;13.30;99.90;;;;;;4993847;28;20054;-71
2023/09/02 05:39:34;;;;;;;19.38;11.93;;;13.30;99.90;;;;;;4962922;28;20049;-71
2023/09/02 05:42:01;;;;;;;18.48;11.60;;;13.40;99.90;;;;;;5013181;28;20403;-71
2023/09/02 05:44:27;;;;;;;15.85;10.15;;;13.30;99.90;;;;;;4967088;28;20057;-71
2023/09/02 05:46:53;;;;;;;16.30;11.55;;;13.40;99.90;;;;;;5005476;28;20037;-70
2023/09/02 05:49:19;;;;;;;18.95;12.57;;;13.40;99.90;;;;;;4966533;28;20049;-70
2023/09/02 05:51:45;;;;;;;19.58;12.98;;;13.60;99.90;;;;;;4994407;28;20049;-70
2023/09/02 05:54:11;;;;;;;17.70;13.35;;;13.80;99.90;;;;;;4952778;28;100543;-70
2023/09/02 05:56:37;;;;;;;17.77;11.85;;;14.10;99.90;;;;;;5000583;28;20049;-70
2023/09/02 05:59:04;;;;;;;18.20;11.40;;;14.40;99.90;;;;;;4968498;28;20039;-70
2023/09/02 06:01:31;;;;;;;18.75;12.73;;;14.50;99.90;;;;;;5003385;28;20442;-70
2023/09/02 06:03:57;;;;;;;19.63;11.32;;;14.80;99.90;;;;;;4962652;28;20400;-71
2023/09/02 06:06:24;;;;;;;17.98;11.52;;;15.20;99.90;;;;;;5014048;28;20073;-71
2023/09/02 06:08:50;;;;;;;16.83;10.93;;;15.40;99.90;;;;;;4963351;28;20046;-71
2023/09/02 06:11:16;;;;;;;19.20;11.77;;;15.60;99.90;;;;;;4994639;28;20342;-70
2023/09/02 06:13:42;;;;;;;19.52;10.68;;;15.80;99.90;;;;;;4990953;28;20054;-70
2023/09/02 06:16:08;;;;;;;17.20;11.32;;;15.90;99.90;;;;;;4946540;28;20462;-71
2023/09/02 06:18:35;;;;;;;15.68;10.45;;;16.10;99.90;;;;;;5002747;28;20060;-71
2023/09/02 06:21:12;;;;;;;17.15;11.18;;;16.30;99.90;;;;;;4955559;28;20060;-71
2023/09/02 06:23:41;;;;;;;17.15;11.02;;;16.60;99.90;;;;;;5002680;28;20058;-70
2023/09/02 06:26:07;;;;;;;16.98;11.00;;;16.80;99.90;;;;;;4927499;28;20046;-71
2023/09/02 06:28:33;;;;;;;16.30;11.05;;;17.10;99.90;;;;;;4980665;28;20054;-71
2023/09/02 06:31:08;;;;;;;17.83;11.25;;;17.20;99.90;;;;;;4974799;28;20053;-70
2023/09/02 06:33:35;;;;;;;16.98;11.88;;;17.50;99.90;;;;;;5004006;28;20049;-71
2023/09/02 06:36:09;;;;;;;18.15;11.60;;;17.70;99.90;;;;;;4976262;28;20045;-71
2023/09/02 06:38:35;;;;;;;18.52;11.65;;;17.90;99.90;;;;;;5000464;28;20474;-70
2023/09/02 06:41:11;;;;;;;16.85;10.70;;;18.00;99.90;;;;;;4979390;28;20038;-74
2023/09/02 06:43:38;;;;;;;16.15;11.45;;;18.30;99.90;;;;;;5005409;28;20426;-74
2023/09/02 06:46:15;;;;;;;19.27;11.75;;;18.50;99.90;;;;;;4960270;28;20062;-73
2023/09/02 06:48:41;;;;;;;16.17;11.57;;;18.50;99.90;;;;;;4993673;28;20065;-74
2023/09/02 06:51:08;;;;;;;16.13;11.98;;;18.60;99.90;;;;;;4966963;28;20531;-75
2023/09/02 06:53:34;;;;;;;19.63;12.43;;;18.50;99.90;;;;;;4999672;28;20073;-74
2023/09/02 06:56:00;;;;;;;18.60;12.40;;;18.60;99.90;;;;;;4948549;28;75586;-73
2023/09/02 06:58:26;;;;;;;17.60;12.85;;;18.60;99.90;;;;;;4998051;28;20050;-72
2023/09/02 07:00:52;;;;;;;19.95;13.02;;;18.50;99.90;;;;;;4964374;28;20813;-74
2023/09/02 07:03:18;;;;;;;19.65;13.98;;;18.50;99.90;;;;;;5003038;28;20250;-73
2023/09/02 07:05:45;;;;;;;19.48;14.43;;;18.60;99.90;;;;;;4958106;28;20057;-74
2023/09/02 07:08:11;;;;;;;19.38;12.85;;;18.60;99.90;;;;;;5000872;28;20050;-74
2023/09/02 07:10:37;;;;;;;21.30;13.70;;;18.70;99.90;;;;;;4961361;28;20398;-73
2023/09/02 07:13:03;;;;;;;18.77;13.45;;;18.80;99.90;;;;;;5000628;28;20065;-72
2023/09/02 07:15:29;;;;;;;18.67;13.38;;;18.90;99.90;;;;;;4959035;28;20061;-71
2023/09/02 07:17:55;;;;;;;18.45;14.02;;;18.90;99.90;;;;;;5009882;28;20045;-70
2023/09/02 07:20:21;;;;;;;19.67;13.95;;;18.80;99.90;;;;;;4963378;28;20787;-71
2023/09/02 07:22:47;;;;;;;23.10;15.35;;;18.70;99.90;;;;;;4997612;28;20057;-71
2023/09/02 07:25:13;;;;;;;21.58;14.57;;;18.60;99.90;;;;;;4963667;28;20054;-71
2023/09/02 07:27:39;;;;;;;21.95;14.73;;;18.60;99.90;;;;;;4998216;28;20042;-71
2023/09/02 07:30:06;;;;;;;21.35;14.57;;;18.50;99.90;;;;;;4973603;28;20056;-71
2023/09/02 07:32:32;;;;;;;20.70;14.38;;;18.40;99.90;;;;;;5003626;28;20062;-71
2023/09/02 07:34:58;;;;;;;22.17;14.80;;;18.40;99.90;;;;;;4960618;28;20129;-70
2023/09/02 07:37:24;;;;;;;21.40;14.85;;;18.60;99.90;;;;;;4994123;28;20179;-70
2023/09/02 07:39:50;;;;;;;20.63;15.13;;;18.90;99.90;;;;;;4964713;28;20050;-70
2023/09/02 07:42:17;;;;;;;18.60;13.43;;;18.90;99.90;;;;;;5000273;28;20054;-70
2023/09/02 07:44:43;;;;;;;20.92;14.50;;;18.80;99.90;;;;;;4999400;28;20060;-70
2023/09/02 07:47:09;;;;;;;20.77;15.10;;;18.80;99.90;;;;;;4998735;28;20065;-72
2023/09/02 07:49:35;;;;;;;23.42;15.23;;;19.10;99.90;;;;;;5000308;28;20045;-71
2023/09/02 07:52:01;;;;;;;20.30;14.63;;;19.40;99.90;;;;;;4939100;28;210871;-69
2023/09/02 07:54:27;;;;;;;20.75;15.27;;;19.70;99.90;;;;;;4999234;28;20499;-70
2023/09/02 07:56:53;;;;;;;21.42;15.15;;;20.00;99.90;;;;;;4963176;28;20041;-70
2023/09/02 07:59:19;;;;;;;22.92;15.15;;;20.40;99.90;;;;;;4999890;28;20046;-69
2023/09/02 08:01:45;;;;;;;23.48;15.38;;;20.90;99.90;;;;;;4958753;28;20818;-72
2023/09/02 08:04:11;;;;;;;20.45;15.18;;;21.40;99.90;;;;;;5001594;28;20404;-70
2023/09/02 08:06:37;;;;;;;21.95;14.60;;;21.70;99.90;;;;;;4962957;28;20049;-70
2023/09/02 08:09:03;;;;;;;19.48;14.70;;;21.80;99.90;;;;;;4997669;28;20073;-69
2023/09/02 08:11:30;;;;;;;21.75;14.63;;;22.20;99.90;;;;;;4969211;28;20072;-70
2023/09/02 08:13:56;;;;;;;19.20;13.18;;;22.50;99.90;;;;;;4995144;28;20061;-70
2023/09/02 08:16:22;;;;;;;20.48;13.52;;;22.90;99.90;;;;;;4960757;28;20050;-70
2023/09/02 08:18:48;;;;;;;20.35;12.75;;;23.30;99.90;;;;;;4999775;28;20045;-71
2023/09/02 08:21:14;;;;;;;22.25;13.13;;;23.60;99.90;;;;;;4963464;28;20065;-69
2023/09/02 08:23:40;;;;;;;20.50;13.82;;;24.00;99.90;;;;;;5004167;28;20538;-69
2023/09/02 08:26:12;;;;;;;21.67;13.40;;;24.40;99.90;;;;;;4973296;28;20073;-69
2023/09/02 08:28:38;;;;;;;19.08;13.32;;;24.60;99.90;;;;;;5004861;28;20392;-70
2023/09/02 08:31:04;;;;;;;19.08;12.98;;;24.80;99.90;;;;;;4945266;28;20037;-69
2023/09/02 08:33:30;;;;;;;19.02;13.07;;;24.90;99.90;;;;;;5006268;28;20046;-73
2023/09/02 08:35:57;;;;;;;17.95;12.90;;;25.00;99.90;;;;;;4964118;28;20153;-71
2023/09/02 08:38:23;;;;;;;18.58;12.98;;;25.40;99.90;;;;;;5004074;28;20054;-73
2023/09/02 08:40:52;;;;;;;19.42;12.80;;;25.40;99.90;;;;;;4971132;28;20049;-72
2023/09/02 08:43:20;;;;;;;18.77;12.20;;;25.60;99.90;;;;;;5011146;28;20049;-70
2023/09/02 08:45:49;;;;;;;18.35;12.48;;;25.90;99.90;;;;;;4963931;28;21074;-72
2023/09/02 08:48:23;;;;;;;18.55;12.15;;;26.20;99.40;;;;;;5009725;28;20058;-71
2023/09/02 08:50:51;;;;;;;18.13;12.50;;;26.50;98.00;;;;;;4941819;28;259310;-72
2023/09/02 08:53:19;;;;;;;18.00;10.93;;;26.50;97.70;;;;;;4989414;28;20054;-72
2023/09/02 08:55:48;;;;;;;18.13;11.45;;;26.40;97.00;;;;;;4971401;28;20046;-72
2023/09/02 08:58:15;;;;;;;22.05;11.23;;;26.70;97.40;;;;;;5013108;28;20600;-72
2023/09/02 09:00:42;;;;;;;18.33;10.88;;;27.00;97.50;;;;;;4968684;28;20119;-71
2023/09/02 09:03:13;;;;;;;19.15;11.35;;;27.50;97.30;;;;;;5013057;28;20534;-69
2023/09/02 09:05:43;;;;;;;18.17;10.85;;;27.50;96.80;;;;;;4968188;28;20148;-69
2023/09/02 09:08:10;;;;;;;20.30;11.50;;;27.60;96.50;;;;;;5015278;28;20049;-69
2023/09/02 09:10:38;;;;;;;20.60;10.73;;;27.40;96.00;;;;;;4967804;28;20581;-70
2023/09/02 09:13:07;;;;;;;17.08;10.55;;;26.80;96.10;;;;;;4997969;28;20259;-70
2023/09/02 09:15:35;;;;;;;17.17;11.98;;;26.30;96.30;;;;;;4951339;28;20049;-69
2023/09/02 09:18:05;;;;;;;23.20;11.48;;;25.70;96.10;;;;;;5016737;28;20058;-69
2023/09/02 09:20:32;;;;;;;18.73;11.32;;;25.30;96.70;;;;;;4960449;28;20046;-70
2023/09/02 09:22:58;;;;;;;18.55;11.25;;;25.20;96.60;;;;;;5000383;28;20065;-71
2023/09/02 09:25:25;;;;;;;19.33;11.90;;;25.80;96.40;;;;;;4969499;28;20050;-71
2023/09/02 09:27:51;;;;;;;17.23;11.23;;;26.30;95.90;;;;;;4996924;28;20053;-70
2023/09/02 09:30:28;;;;;;;16.25;10.60;;;26.10;95.80;;;;;;4968184;28;20060;-71
2023/09/02 09:33:01;;;;;;;18.00;10.98;;;25.70;96.10;;;;;;5009455;28;20427;-69
2023/09/02 09:35:28;;;;;;;19.75;10.95;;;25.50;96.40;;;;;;4964207;28;20043;-70
2023/09/02 09:37:55;;;;;;;16.90;10.75;;;26.20;96.30;;;;;;5013629;28;20061;-71
2023/09/02 09:40:31;;;;;;;16.45;10.68;;;27.00;95.60;;;;;;4965795;28;20615;-70
2023/09/02 09:42:59;;;;;;;17.85;10.68;;;27.80;95.00;;;;;;5005837;28;20057;-69
2023/09/02 09:45:26;;;;;;;16.90;10.30;;;28.30;94.60;;;;;;4971421;28;20077;-70
2023/09/02 09:47:52;;;;;;;18.25;10.75;;;28.90;94.50;;;;;;5004858;28;20081;-72
2023/09/02 09:50:18;;;;;;;19.98;10.43;;;29.40;94.20;;;;;;4958596;28;78095;-69
2023/09/02 09:53:02;;;;;;;19.38;10.32;;;29.90;93.80;;;;;;4984189;28;20050;-70
2023/09/02 09:55:29;;;;;;;15.02;9.23;;;30.20;92.70;;;;;;4968252;28;20060;-70
2023/09/02 09:57:57;;;;;;;16.20;9.73;;;30.40;92.60;;;;;;5012985;28;20050;-69
2023/09/02 10:00:24;;;;;;;15.05;9.10;;;30.70;92.70;;;;;;4970595;28;20081;-69
2023/09/02 10:02:55;;;;;;;17.75;9.27;;;29.80;92.80;;;;;;5000103;28;20085;-69
2023/09/02 10:05:26;;;;;;;17.05;9.25;;;30.10;92.80;;;;;;4967305;28;20042;-70
2023/09/02 10:08:11;;;;;;;17.33;10.45;;;30.00;93.00;;;;;;4966775;28;20054;-70
2023/09/02 10:10:38;;;;;;;16.13;9.73;;;29.10;91.50;;;;;;4983763;28;20049;-70
2023/09/02 10:13:05;;;;;;;16.90;9.77;;;27.90;92.90;;;;;;5011209;28;20054;-70
2023/09/02 10:15:32;;;;;;;17.98;9.93;;;27.00;93.30;;;;;;4963116;28;20042;-69
2023/09/02 10:18:01;;;;;;;15.98;10.18;;;26.30;93.80;;;;;;4999835;28;20053;-70
2023/09/02 10:20:30;;;;;;;21.65;10.38;;;25.60;94.10;;;;;;4967512;28;20048;-69
2023/09/02 10:23:17;;;;;;;17.30;10.02;;;25.40;94.50;;;;;;5014641;28;20410;-71
2023/09/02 10:25:48;;;;;;;14.95;9.23;;;25.60;94.40;;;;;;4964792;28;20053;-70
2023/09/02 10:28:40;;;;;;;16.27;9.30;;;26.00;94.70;;;;;;5008863;28;20415;-69
2023/09/02 10:31:21;;;;;;;17.05;9.32;;;26.70;94.40;;;;;;4958682;28;20062;-70
2023/09/02 10:34:21;;;;;;;13.85;8.95;;;27.40;93.50;;;;;;5003533;28;20058;-67
2023/09/02 10:36:56;;;;;;;16.80;9.05;;;26.90;93.90;;;;;;4966756;28;20072;-69
2023/09/02 10:39:51;;;;;;;15.20;9.23;;;27.50;93.70;;;;;;5001821;28;20049;-68
2023/09/02 10:42:18;;;;;;;19.33;9.43;;;28.20;93.30;;;;;;4975285;28;20057;-72
2023/09/02 10:44:47;;;;;;;16.17;9.23;;;28.50;92.60;;;;;;5006699;28;20065;-69
2023/09/02 10:47:14;;;;;;;14.80;8.13;;;28.70;93.30;;;;;;4961009;28;20064;-68
2023/09/02 10:49:41;;;;;;;14.45;8.32;;;29.20;93.30;;;;;;5002649;28;20081;-69
2023/09/02 10:52:08;;;;;;;16.33;9.20;;;29.50;92.80;;;;;;4962179;28;92168;-69
2023/09/02 10:55:03;;;;;;;15.55;8.52;;;29.70;92.30;;;;;;4999085;28;20050;-68
2023/09/02 10:57:48;;;;;;;13.38;7.45;;;29.60;91.80;;;;;;4948017;28;20166;-70
2023/09/02 11:00:25;;;;;;;13.52;7.35;;;30.20;91.50;;;;;;4969975;28;20046;-68
2023/09/02 11:02:59;;;;;;;14.25;6.90;;;30.20;90.90;;;;;;4993288;28;20065;-70
2023/09/02 11:05:27;;;;;;;13.80;6.95;;;30.20;92.20;;;;;;4945198;28;20157;-70
2023/09/02 11:07:54;;;;;;;13.38;7.35;;;30.40;92.00;;;;;;4980986;28;20069;-70
2023/09/02 11:10:22;;;;;;;14.27;6.95;;;30.80;91.70;;;;;;4945584;28;20054;-70
2023/09/02 11:12:57;;;;;;;14.30;6.55;;;30.70;91.90;;;;;;4992950;28;20046;-68
2023/09/02 11:15:24;;;;;;;14.25;7.93;;;30.80;91.00;;;;;;4945484;28;20070;-69
2023/09/02 11:17:50;;;;;;;13.93;7.28;;;30.10;91.00;;;;;;4997504;28;20189;-70
2023/09/02 11:20:26;;;;;;;13.60;7.75;;;30.30;91.00;;;;;;4964450;28;20053;-73
2023/09/02 11:22:56;;;;;;;16.85;6.50;;;29.90;91.00;;;;;;5012087;28;20451;-72
2023/09/02 11:25:41;;;;;;;13.52;6.30;;;29.10;90.90;;;;;;4965608;28;20047;-71
2023/09/02 11:28:29;;;;;;;10.57;5.50;;;27.50;91.20;;;;;;5009372;28;20483;-70
2023/09/02 11:31:04;;;;;;;19.80;8.13;;;26.70;91.70;;;;;;4962543;28;20069;-70
2023/09/02 11:33:30;;;;;;;13.40;5.93;;;26.20;92.00;;;;;;5001256;28;20065;-71
2023/09/02 11:36:27;;;;;;;11.40;4.95;;;26.00;91.90;;;;;;4969815;28;20058;-70
2023/09/02 11:38:55;;;;;;;14.10;5.70;;;27.10;91.70;;;;;;4992135;28;20109;-72
2023/09/02 11:41:21;;;;;;;11.82;5.18;;;27.80;91.90;;;;;;4959791;28;20650;-71
2023/09/02 11:43:48;;;;;;;12.15;5.35;;;28.20;91.90;;;;;;5000309;28;20054;-71
2023/09/02 11:46:14;;;;;;;12.25;5.20;;;28.90;91.60;;;;;;4963113;28;20141;-72
2023/09/02 11:48:40;;;;;;;13.90;6.53;;;29.70;91.60;;;;;;4996908;28;20056;-72
2023/09/02 11:51:11;;;;;;;12.18;5.88;;;30.10;90.40;;;;;;4950919;28;252533;-71
2023/09/02 11:53:38;;;;;;;11.65;5.50;;;29.20;90.20;;;;;;4998552;28;20060;-71
2023/09/02 11:56:09;;;;;;;11.60;5.85;;;28.30;90.90;;;;;;4965998;28;20057;-71
2023/09/02 11:58:35;;;;;;;13.55;6.68;;;28.10;91.00;;;;;;5008852;28;20042;-71
2023/09/02 12:01:01;;;;;;;11.27;5.68;;;27.70;91.50;;;;;;4964175;28;20739;-71
2023/09/02 12:03:28;;;;;;;14.00;6.35;;;28.30;91.70;;;;;;4999031;28;20050;-69
2023/09/02 12:05:57;;;;;;;16.65;5.80;;;28.40;91.30;;;;;;4958252;28;20058;-72
2023/09/02 12:08:23;;;;;;;11.60;5.40;;;28.80;91.50;;;;;;4999307;28;20058;-70
2023/09/02 12:10:49;;;;;;;12.23;5.35;;;29.50;91.10;;;;;;4961335;28;20058;-71
2023/09/02 12:13:16;;;;;;;12.00;5.00;;;29.40;89.90;;;;;;4995562;28;20062;-69
2023/09/02 12:15:46;;;;;;;11.55;4.50;;;28.90;90.00;;;;;;4962671;28;20419;-70
2023/09/02 12:18:12;;;;;;;11.27;4.55;;;28.70;90.20;;;;;;4994921;28;20442;-70
2023/09/02 12:20:39;;;;;;;11.77;4.60;;;27.90;90.50;;;;;;4961720;28;20045;-69
2023/09/02 12:23:05;;;;;;;11.27;4.90;;;27.20;91.00;;;;;;4992987;28;20061;-70
2023/09/02 12:25:33;;;;;;;12.15;4.50;;;26.70;91.40;;;;;;4965889;28;20073;-69
2023/09/02 12:28:19;;;;;;;10.68;4.50;;;26.30;91.60;;;;;;4997792;28;20061;-69
2023/09/02 12:30:51;;;;;;;11.40;5.03;;;26.20;91.70;;;;;;4956428;28;20085;-69
2023/09/02 12:33:17;;;;;;;11.63;4.97;;;26.40;91.90;;;;;;4983877;28;20065;-69
2023/09/02 12:35:52;;;;;;;11.13;4.57;;;27.00;92.00;;;;;;4943586;28;20055;-69
2023/09/02 12:38:20;;;;;;;11.32;4.72;;;27.70;92.10;;;;;;4981529;28;20050;-70
2023/09/02 12:40:54;;;;;;;11.38;4.60;;;28.30;91.60;;;;;;4947004;28;20057;-69